createdAt,value
2022-12-17T00:01:59.720Z,25.23
2022-12-17T00:04:25.826Z,21.80
2022-12-17T00:06:51.956Z,22.60
2022-12-17T00:09:18.082Z,18.75
2022-12-17T00:11:44.219Z,25.58
2022-12-17T00:14:10.350Z,18.63
2022-12-17T00:16:36.579Z,22.98
2022-12-17T00:19:02.828Z,19.95
2022-12-17T00:21:28.964Z,23.80
2022-12-17T00:23:55.100Z,19.75
2022-12-17T00:26:22.671Z,22.10
2022-12-17T00:28:48.794Z,17.60
2022-12-17T00:31:14.928Z,24.45
2022-12-17T00:33:41.120Z,22.55
2022-12-17T00:36:07.222Z,21.13
2022-12-17T00:38:33.359Z,22.13
2022-12-17T00:40:59.490Z,19.58
2022-12-17T00:43:25.610Z,19.73
2022-12-17T00:45:51.706Z,23.67
2022-12-17T00:48:18.029Z,20.38
2022-12-17T00:50:44.162Z,18.40
2022-12-17T00:53:10.281Z,21.10
2022-12-17T00:55:36.422Z,19.52
2022-12-17T00:58:02.559Z,18.52
2022-12-17T01:00:28.765Z,21.17
2022-12-17T01:02:55.026Z,23.08
2022-12-17T01:05:22.566Z,16.42
2022-12-17T01:07:48.710Z,17.88
2022-12-17T01:10:14.836Z,18.80
2022-12-17T01:12:40.994Z,17.40
2022-12-17T01:15:07.113Z,20.77
2022-12-17T01:17:33.219Z,19.48
2022-12-17T01:19:59.354Z,23.58
2022-12-17T01:22:25.458Z,18.13
2022-12-17T01:24:51.683Z,19.40
2022-12-17T01:27:18.039Z,17.73
2022-12-17T01:29:44.142Z,19.13
2022-12-17T01:32:10.359Z,19.75
2022-12-17T01:34:36.548Z,19.25
2022-12-17T01:37:02.677Z,19.23
2022-12-17T01:39:28.788Z,22.17
2022-12-17T01:41:54.926Z,21.23
2022-12-17T01:44:22.900Z,20.17
2022-12-17T01:46:49.031Z,18.65
2022-12-17T01:49:15.168Z,20.15
2022-12-17T01:51:41.272Z,17.50
2022-12-17T01:54:07.373Z,20.23
2022-12-17T01:56:33.484Z,22.13
2022-12-17T01:58:59.621Z,18.85
2022-12-17T02:01:25.827Z,18.80
2022-12-17T02:03:52.044Z,20.25
2022-12-17T02:06:18.135Z,20.50
2022-12-17T02:08:44.261Z,18.17
2022-12-17T02:11:10.401Z,19.73
2022-12-17T02:13:36.812Z,19.73
2022-12-17T02:16:03.290Z,25.48
2022-12-17T02:18:29.429Z,16.63
2022-12-17T02:20:55.533Z,27.20
2022-12-17T02:23:21.628Z,16.92
2022-12-17T02:25:47.761Z,16.55
2022-12-17T02:28:13.892Z,19.23
2022-12-17T02:30:40.004Z,18.00
2022-12-17T02:33:06.116Z,20.52
2022-12-17T02:35:32.237Z,19.38
2022-12-17T02:37:58.339Z,17.05
2022-12-17T02:40:24.473Z,20.35
2022-12-17T02:42:50.575Z,20.88
2022-12-17T02:45:16.689Z,15.98
2022-12-17T02:47:42.838Z,18.27
2022-12-17T02:50:08.959Z,17.73
2022-12-17T02:52:35.281Z,18.85
2022-12-17T02:55:01.447Z,19.52
2022-12-17T02:57:27.553Z,20.13
2022-12-17T02:59:53.669Z,17.63
2022-12-17T03:02:19.886Z,18.88
2022-12-17T03:04:46.040Z,19.63
2022-12-17T03:07:12.188Z,21.63
2022-12-17T03:09:38.291Z,18.08
2022-12-17T03:12:04.421Z,20.77
2022-12-17T03:14:30.548Z,19.58
2022-12-17T03:16:56.691Z,22.42
2022-12-17T03:19:22.820Z,19.05
2022-12-17T03:21:48.945Z,21.33
2022-12-17T03:24:15.078Z,22.02
2022-12-17T03:26:41.213Z,23.70
2022-12-17T03:29:07.315Z,21.50
2022-12-17T03:31:33.546Z,19.13
2022-12-17T03:33:59.655Z,20.83
2022-12-17T03:36:25.791Z,22.10
2022-12-17T03:38:51.943Z,20.27
2022-12-17T03:41:18.056Z,21.45
2022-12-17T03:43:44.179Z,21.80
2022-12-17T03:46:10.382Z,22.90
2022-12-17T03:48:36.544Z,20.85
2022-12-17T03:51:02.649Z,20.77
2022-12-17T03:53:28.797Z,20.27
2022-12-17T03:55:54.947Z,19.65
2022-12-17T03:58:21.065Z,22.42
2022-12-17T04:00:47.172Z,22.80
2022-12-17T04:03:13.371Z,21.52
2022-12-17T04:05:39.522Z,22.20
2022-12-17T04:08:05.652Z,22.00
2022-12-17T04:10:31.759Z,24.85
2022-12-17T04:12:57.884Z,21.73
2022-12-17T04:15:24.023Z,22.88
2022-12-17T04:17:50.178Z,22.75
2022-12-17T04:20:16.286Z,22.58
2022-12-17T04:22:42.385Z,23.75
2022-12-17T04:25:08.509Z,24.27
2022-12-17T04:27:34.608Z,24.27
2022-12-17T04:30:00.772Z,23.02
2022-12-17T04:32:31.099Z,21.08
2022-12-17T04:34:59.828Z,24.50
2022-12-17T04:37:25.942Z,25.88
2022-12-17T04:39:52.095Z,23.55
2022-12-17T04:42:18.382Z,23.13
2022-12-17T04:44:44.507Z,22.40
2022-12-17T04:47:10.611Z,22.23
2022-12-17T04:49:36.737Z,25.63
2022-12-17T04:52:02.872Z,24.33
2022-12-17T04:54:29.035Z,20.98
2022-12-17T04:56:55.150Z,20.70
2022-12-17T04:59:21.277Z,22.25
2022-12-17T05:01:47.539Z,22.90
2022-12-17T05:04:13.760Z,23.70
2022-12-17T05:06:39.860Z,22.73
2022-12-17T05:09:05.973Z,24.55
2022-12-17T05:11:32.080Z,25.60
2022-12-17T05:13:58.208Z,23.52
2022-12-17T05:16:24.369Z,22.73
2022-12-17T05:18:50.485Z,24.20
2022-12-17T05:21:16.653Z,24.50
2022-12-17T05:23:42.749Z,20.13
2022-12-17T05:26:08.868Z,20.85
2022-12-17T05:28:34.994Z,24.05
2022-12-17T05:31:01.242Z,21.13
2022-12-17T05:33:27.392Z,20.48
2022-12-17T05:35:53.509Z,21.67
2022-12-17T05:38:19.615Z,20.88
2022-12-17T05:40:45.733Z,20.88
2022-12-17T05:43:11.828Z,23.67
2022-12-17T05:45:38.000Z,21.10
2022-12-17T05:48:04.132Z,19.60
2022-12-17T05:50:30.273Z,20.83
2022-12-17T05:52:56.383Z,25.95
2022-12-17T05:55:22.483Z,19.08
2022-12-17T05:57:54.590Z,24.42
2022-12-17T06:00:22.423Z,18.65
2022-12-17T06:02:48.694Z,20.98
2022-12-17T06:05:14.939Z,26.67
2022-12-17T06:07:41.085Z,25.15
2022-12-17T06:10:07.193Z,23.15
2022-12-17T06:12:33.305Z,23.15
2022-12-17T06:14:59.433Z,25.77
2022-12-17T06:17:25.586Z,23.58
2022-12-17T06:19:51.717Z,22.42
2022-12-17T06:22:17.924Z,26.25
2022-12-17T06:24:46.131Z,22.08
2022-12-17T06:27:12.570Z,28.92
2022-12-17T06:29:38.686Z,27.58
2022-12-17T06:32:04.794Z,23.55
2022-12-17T06:34:30.915Z,27.75
2022-12-17T06:36:57.024Z,21.52
2022-12-17T06:39:23.133Z,21.63
2022-12-17T06:41:49.262Z,26.20
2022-12-17T06:44:15.389Z,24.35
2022-12-17T06:46:41.538Z,25.23
2022-12-17T06:49:07.667Z,27.45
2022-12-17T06:51:33.801Z,26.23
2022-12-17T06:53:59.900Z,26.58
2022-12-17T06:56:26.043Z,23.58
2022-12-17T06:58:52.188Z,27.52
2022-12-17T07:01:18.407Z,24.90
2022-12-17T07:03:44.629Z,25.17
2022-12-17T07:06:10.732Z,25.13
2022-12-17T07:08:36.861Z,25.55
2022-12-17T07:11:02.955Z,29.77
2022-12-17T07:13:29.100Z,25.35
2022-12-17T07:15:55.282Z,27.02
2022-12-17T07:18:21.392Z,27.05
2022-12-17T07:20:47.513Z,24.08
2022-12-17T07:23:13.644Z,20.58
2022-12-17T07:25:45.694Z,23.45
2022-12-17T07:28:12.249Z,23.95
2022-12-17T07:30:38.343Z,25.73
2022-12-17T07:33:04.465Z,25.52
2022-12-17T07:35:30.575Z,23.38
2022-12-17T07:37:56.705Z,29.17
2022-12-17T07:40:22.817Z,27.13
2022-12-17T07:42:48.970Z,25.98
2022-12-17T07:45:15.087Z,24.50
2022-12-17T07:47:41.183Z,30.80
2022-12-17T07:50:07.303Z,26.23
2022-12-17T07:52:33.428Z,24.95
2022-12-17T07:54:59.565Z,22.52
2022-12-17T07:57:25.701Z,23.95
2022-12-17T07:59:51.831Z,20.98
2022-12-17T08:02:18.123Z,26.83
2022-12-17T08:04:44.366Z,21.70
2022-12-17T08:07:13.994Z,28.17
2022-12-17T08:09:40.436Z,26.20
2022-12-17T08:12:06.583Z,20.85
2022-12-17T08:14:32.734Z,23.70
2022-12-17T08:16:58.882Z,24.58
2022-12-17T08:19:25.263Z,24.77
2022-12-17T08:21:51.564Z,23.33
2022-12-17T08:24:18.682Z,24.90
2022-12-17T08:26:48.093Z,25.10
2022-12-17T08:29:14.590Z,22.10
2022-12-17T08:31:40.737Z,23.83
2022-12-17T08:34:08.215Z,20.98
2022-12-17T08:36:34.557Z,22.20
2022-12-17T08:39:00.666Z,20.15
2022-12-17T08:41:26.817Z,23.17
2022-12-17T08:43:52.946Z,22.88
2022-12-17T08:46:19.119Z,20.70
2022-12-17T08:48:45.271Z,23.50
2022-12-17T08:51:11.404Z,22.83
2022-12-17T08:53:37.878Z,28.38
2022-12-17T08:56:04.255Z,23.85
2022-12-17T08:58:30.362Z,26.27
2022-12-17T09:00:57.326Z,21.30
2022-12-17T09:03:23.656Z,26.80
2022-12-17T09:05:49.952Z,23.70
2022-12-17T09:08:16.079Z,23.08
2022-12-17T09:10:42.181Z,22.95
2022-12-17T09:13:08.300Z,21.85
2022-12-17T09:15:34.412Z,21.17
2022-12-17T09:18:00.549Z,24.33
2022-12-17T09:20:29.447Z,22.80
2022-12-17T09:22:55.841Z,21.95
2022-12-17T09:25:21.945Z,24.90
2022-12-17T09:27:48.097Z,24.10
2022-12-17T09:30:14.195Z,23.25
2022-12-17T09:32:40.325Z,20.77
2022-12-17T09:35:06.423Z,23.10
2022-12-17T09:37:32.554Z,21.98
2022-12-17T09:39:58.678Z,22.50
2022-12-17T09:42:24.809Z,23.13
2022-12-17T09:44:50.902Z,22.48
2022-12-17T09:47:17.022Z,28.02
2022-12-17T09:49:43.162Z,21.30
2022-12-17T09:52:09.293Z,25.35
2022-12-17T09:54:35.441Z,26.85
2022-12-17T09:57:01.590Z,23.15
2022-12-17T09:59:27.755Z,22.52
2022-12-17T10:01:53.971Z,24.85
2022-12-17T10:04:20.140Z,21.15
2022-12-17T10:06:46.257Z,21.20
2022-12-17T10:09:12.376Z,22.65
2022-12-17T10:11:38.478Z,22.02
2022-12-17T10:14:04.596Z,23.10
2022-12-17T10:16:30.723Z,21.35
2022-12-17T10:18:57.030Z,23.08
2022-12-17T10:21:23.223Z,25.10
2022-12-17T10:23:49.317Z,24.33
2022-12-17T10:26:15.447Z,24.42
2022-12-17T10:28:41.557Z,21.20
2022-12-17T10:31:07.720Z,25.20
2022-12-17T10:33:34.113Z,23.73
2022-12-17T10:36:00.539Z,22.95
2022-12-17T10:38:26.631Z,22.05
2022-12-17T10:40:52.750Z,20.50
2022-12-17T10:43:18.849Z,21.85
2022-12-17T10:45:44.972Z,20.15
2022-12-17T10:48:11.121Z,24.58
2022-12-17T10:50:37.254Z,19.13
2022-12-17T10:53:03.356Z,23.95
2022-12-17T10:55:29.460Z,20.55
2022-12-17T10:57:55.595Z,22.50
2022-12-17T11:00:21.740Z,22.58
2022-12-17T11:02:48.070Z,20.98
2022-12-17T11:05:14.292Z,20.92
2022-12-17T11:07:40.411Z,19.70
2022-12-17T11:10:09.526Z,26.08
2022-12-17T11:12:36.222Z,22.05
2022-12-17T11:15:02.325Z,24.90
2022-12-17T11:17:28.494Z,21.60
2022-12-17T11:19:54.591Z,25.52
2022-12-17T11:22:20.720Z,21.90
2022-12-17T11:24:46.816Z,20.80
2022-12-17T11:27:12.926Z,21.25
2022-12-17T11:29:39.059Z,20.92
2022-12-17T11:32:05.161Z,22.70
2022-12-17T11:34:31.297Z,22.50
2022-12-17T11:36:57.462Z,23.45
2022-12-17T11:39:23.600Z,22.67
2022-12-17T11:41:49.704Z,21.00
2022-12-17T11:44:15.857Z,21.52
2022-12-17T11:46:42.004Z,20.48
2022-12-17T11:49:08.169Z,24.83
2022-12-17T11:51:34.285Z,24.23
2022-12-17T11:54:00.394Z,26.27
2022-12-17T11:56:26.538Z,23.20
2022-12-17T11:58:52.663Z,23.75
2022-12-17T12:01:18.820Z,27.05
2022-12-17T12:03:45.149Z,28.05
2022-12-17T12:06:11.343Z,26.15
2022-12-17T12:08:37.771Z,22.98
2022-12-17T12:11:04.010Z,26.15
2022-12-17T12:13:30.102Z,27.80
2022-12-17T12:15:56.281Z,27.52
2022-12-17T12:18:22.411Z,25.02
2022-12-17T12:20:48.570Z,23.38
2022-12-17T12:23:14.701Z,25.17
2022-12-17T12:25:40.868Z,26.20
2022-12-17T12:28:06.957Z,24.88
2022-12-17T12:30:33.060Z,26.55
2022-12-17T12:32:59.228Z,26.60
2022-12-17T12:35:25.332Z,27.58
2022-12-17T12:37:51.496Z,28.00
2022-12-17T12:40:17.605Z,25.45
2022-12-17T12:42:43.724Z,23.65
2022-12-17T12:45:09.851Z,26.42
2022-12-17T12:47:36.566Z,29.58
2022-12-17T12:50:02.691Z,25.35
2022-12-17T12:52:28.798Z,27.83
2022-12-17T12:54:54.893Z,26.52
2022-12-17T12:57:20.984Z,29.67
2022-12-17T12:59:47.118Z,30.85
2022-12-17T13:02:13.310Z,28.08
2022-12-17T13:04:39.526Z,27.13
2022-12-17T13:07:05.639Z,29.08
2022-12-17T13:09:34.896Z,30.88
2022-12-17T13:12:01.580Z,29.73
2022-12-17T13:14:27.727Z,30.00
2022-12-17T13:16:53.878Z,30.30
2022-12-17T13:19:20.029Z,30.48
2022-12-17T13:21:46.145Z,30.05
2022-12-17T13:24:12.262Z,31.92
2022-12-17T13:26:38.372Z,29.30
2022-12-17T13:29:04.567Z,28.83
2022-12-17T13:31:30.728Z,29.17
2022-12-17T13:33:57.865Z,38.50
2022-12-17T13:36:24.074Z,29.92
2022-12-17T13:38:50.198Z,31.10
2022-12-17T13:41:16.325Z,45.00
2022-12-17T13:43:42.438Z,32.60
2022-12-17T13:46:08.621Z,27.80
2022-12-17T13:48:35.007Z,32.40
2022-12-17T13:51:01.304Z,31.20
2022-12-17T13:53:27.411Z,32.25
2022-12-17T13:55:53.551Z,36.67
2022-12-17T13:58:19.655Z,30.50
2022-12-17T14:00:45.811Z,36.90
2022-12-17T14:03:12.081Z,32.63
2022-12-17T14:05:38.302Z,29.65
2022-12-17T14:08:04.459Z,34.13
2022-12-17T14:10:30.561Z,34.95
2022-12-17T14:12:56.693Z,35.22
2022-12-17T14:15:22.817Z,34.50
2022-12-17T14:17:48.935Z,36.10
2022-12-17T14:20:15.029Z,36.40
2022-12-17T14:22:43.903Z,41.47
2022-12-17T14:25:15.496Z,35.53
2022-12-17T14:27:41.708Z,31.63
2022-12-17T14:30:07.812Z,34.72
2022-12-17T14:32:33.968Z,34.28
2022-12-17T14:35:01.018Z,35.97
2022-12-17T14:37:27.390Z,39.05
2022-12-17T14:39:53.488Z,32.70
2022-12-17T14:42:19.608Z,34.22
2022-12-17T14:44:45.746Z,34.08
2022-12-17T14:47:11.881Z,35.42
2022-12-17T14:49:38.003Z,38.03
2022-12-17T14:52:04.095Z,32.30
2022-12-17T14:54:30.243Z,33.70
2022-12-17T14:56:56.385Z,36.47
2022-12-17T14:59:22.532Z,35.40
2022-12-17T15:01:54.198Z,36.95
2022-12-17T15:04:21.996Z,37.92
2022-12-17T15:06:48.128Z,35.58
2022-12-17T15:09:14.262Z,38.30
2022-12-17T15:11:40.431Z,37.17
2022-12-17T15:14:06.599Z,35.22
2022-12-17T15:16:32.743Z,39.45
2022-12-17T15:18:58.876Z,36.28
2022-12-17T15:21:24.998Z,39.47
2022-12-17T15:23:51.153Z,39.20
2022-12-17T15:26:17.314Z,42.90
2022-12-17T15:28:43.478Z,41.03
2022-12-17T15:31:09.683Z,39.47
2022-12-17T15:33:35.840Z,44.13
2022-12-17T15:36:01.981Z,37.90
2022-12-17T15:38:28.138Z,40.70
2022-12-17T15:40:54.237Z,42.80
2022-12-17T15:43:20.355Z,38.38
2022-12-17T15:45:46.557Z,41.35
2022-12-17T15:48:12.840Z,41.47
2022-12-17T15:50:39.030Z,39.25
2022-12-17T15:53:05.166Z,41.83
2022-12-17T15:55:31.269Z,45.15
2022-12-17T15:57:57.397Z,45.60
2022-12-17T16:00:23.505Z,44.47
2022-12-17T16:02:49.816Z,40.75
2022-12-17T16:05:16.104Z,44.72
2022-12-17T16:07:42.260Z,44.20
2022-12-17T16:10:08.401Z,45.35
2022-12-17T16:12:34.502Z,43.25
2022-12-17T16:15:00.691Z,52.10
2022-12-17T16:17:26.804Z,43.70
2022-12-17T16:19:52.936Z,45.65
2022-12-17T16:22:19.074Z,45.05
2022-12-17T16:24:45.182Z,43.55
2022-12-17T16:27:11.289Z,46.92
2022-12-17T16:29:37.575Z,47.15
2022-12-17T16:32:03.753Z,44.40
2022-12-17T16:34:29.887Z,40.45
2022-12-17T16:36:56.125Z,44.92
2022-12-17T16:39:22.303Z,42.08
2022-12-17T16:41:48.519Z,39.60
2022-12-17T16:44:14.629Z,42.10
2022-12-17T16:46:40.956Z,35.97
2022-12-17T16:49:07.146Z,35.97
2022-12-17T16:51:33.263Z,35.67
2022-12-17T16:53:59.397Z,40.08
2022-12-17T16:56:25.827Z,33.95
2022-12-17T16:58:51.978Z,38.60
2022-12-17T17:01:18.236Z,35.17
2022-12-17T17:03:44.565Z,33.45
2022-12-17T17:06:10.941Z,33.35
2022-12-17T17:08:37.643Z,32.20
2022-12-17T17:11:04.046Z,31.77
2022-12-17T17:13:30.195Z,35.38
2022-12-17T17:15:56.354Z,34.70
2022-12-17T17:18:24.881Z,29.08
2022-12-17T17:20:51.206Z,32.08
2022-12-17T17:23:17.363Z,29.00
2022-12-17T17:25:58.431Z,31.85
2022-12-17T17:28:24.784Z,26.40
2022-12-17T17:30:51.004Z,28.75
2022-12-17T17:33:17.169Z,31.88
2022-12-17T17:35:43.309Z,28.00
2022-12-17T17:38:09.473Z,32.03
2022-12-17T17:40:35.581Z,27.48
2022-12-17T17:43:01.727Z,29.98
2022-12-17T17:45:27.844Z,28.25
2022-12-17T17:47:54.014Z,29.90
2022-12-17T17:50:20.152Z,35.63
2022-12-17T17:52:46.457Z,31.95
2022-12-17T17:55:12.810Z,34.05
2022-12-17T17:57:39.260Z,33.00
2022-12-17T18:00:05.436Z,34.47
2022-12-17T18:02:31.693Z,34.00
2022-12-17T18:04:57.956Z,36.08
2022-12-17T18:07:25.920Z,40.70
2022-12-17T18:09:52.765Z,40.85
2022-12-17T18:12:18.949Z,33.00
2022-12-17T18:15:12.172Z,36.10
2022-12-17T18:17:31.194Z,33.15
2022-12-17T18:19:57.374Z,33.03
2022-12-17T18:22:23.470Z,35.90
2022-12-17T18:24:49.693Z,38.83
2022-12-17T18:27:15.839Z,38.45
2022-12-17T18:29:41.970Z,40.33
2022-12-17T18:32:08.122Z,45.55
2022-12-17T18:34:34.323Z,39.70
2022-12-17T18:37:00.471Z,39.88
2022-12-17T18:39:26.628Z,43.35
2022-12-17T18:41:52.799Z,46.78
2022-12-17T18:44:18.927Z,45.30
2022-12-17T18:46:45.146Z,43.47
2022-12-17T18:49:11.267Z,44.63
2022-12-17T18:51:37.378Z,43.13
2022-12-17T18:54:03.508Z,43.80
2022-12-17T18:56:59.319Z,43.15
2022-12-17T18:59:15.707Z,40.33
2022-12-17T19:01:41.944Z,41.45
2022-12-17T19:04:08.199Z,47.08
2022-12-17T19:06:34.325Z,42.70
2022-12-17T19:09:00.425Z,58.28
2022-12-17T19:11:26.551Z,45.50
2022-12-17T19:13:52.647Z,39.85
2022-12-17T19:16:18.912Z,38.88
2022-12-17T19:18:45.039Z,40.17
2022-12-17T19:21:11.160Z,43.60
2022-12-17T19:23:37.278Z,43.03
2022-12-17T19:26:03.385Z,40.70
2022-12-17T19:28:29.503Z,36.80
2022-12-17T19:30:55.612Z,35.95
2022-12-17T19:33:21.741Z,37.88
2022-12-17T19:35:47.860Z,36.97
2022-12-17T19:38:13.972Z,38.13
2022-12-17T19:40:40.071Z,37.38
2022-12-17T19:43:06.202Z,38.25
2022-12-17T19:45:32.357Z,40.05
2022-12-17T19:47:58.567Z,45.90
2022-12-17T19:50:24.692Z,40.45
2022-12-17T19:52:50.846Z,40.40
2022-12-17T19:55:16.956Z,36.42
2022-12-17T19:57:43.096Z,39.13
2022-12-17T20:00:09.226Z,38.90
2022-12-17T20:02:35.502Z,35.58
2022-12-17T20:05:01.657Z,40.08
2022-12-17T20:07:27.800Z,36.40
2022-12-17T20:09:53.914Z,40.55
2022-12-17T20:12:20.166Z,39.30
2022-12-17T20:14:46.273Z,34.25
2022-12-17T20:17:12.408Z,42.10
2022-12-17T20:19:38.496Z,103.65
2022-12-17T20:22:04.670Z,33.20
2022-12-17T20:24:32.144Z,34.35
2022-12-17T20:27:01.713Z,35.10
2022-12-17T20:29:28.971Z,39.22
2022-12-17T20:31:57.267Z,44.08
2022-12-17T20:34:25.025Z,37.95
2022-12-17T20:36:51.729Z,36.53
2022-12-17T20:39:23.232Z,36.90
2022-12-17T20:41:52.616Z,30.80
2022-12-17T20:44:19.405Z,33.47
2022-12-17T20:46:45.582Z,35.83
2022-12-17T20:49:12.801Z,35.20
2022-12-17T20:51:39.161Z,37.08
2022-12-17T20:54:05.787Z,33.00
2022-12-17T20:56:32.491Z,33.78
2022-12-17T20:58:59.144Z,33.47
2022-12-17T21:01:25.943Z,36.15
2022-12-17T21:03:52.579Z,32.30
2022-12-17T21:06:19.676Z,31.33
2022-12-17T21:08:49.854Z,31.25
2022-12-17T21:11:18.452Z,29.83
2022-12-17T21:13:44.935Z,32.47
2022-12-17T21:16:12.298Z,31.63
2022-12-17T21:18:38.871Z,30.77
2022-12-17T21:21:05.469Z,32.28
2022-12-17T21:23:31.684Z,31.75
2022-12-17T21:25:58.002Z,25.92
2022-12-17T21:28:25.208Z,28.25
2022-12-17T21:30:52.608Z,28.27
2022-12-17T21:33:19.118Z,24.70
2022-12-17T21:35:46.920Z,28.70
2022-12-17T21:38:13.067Z,26.35
2022-12-17T21:40:40.218Z,31.10
2022-12-17T21:43:06.896Z,27.33
2022-12-17T21:45:34.078Z,31.88
2022-12-17T21:48:00.721Z,27.52
2022-12-17T21:50:33.279Z,27.05
2022-12-17T21:52:59.798Z,28.50
2022-12-17T21:55:26.287Z,30.90
2022-12-17T21:57:52.540Z,29.95
2022-12-17T22:00:19.179Z,25.60
2022-12-17T22:02:46.055Z,28.15
2022-12-17T22:05:17.599Z,26.50
2022-12-17T22:07:48.168Z,26.42
2022-12-17T22:10:38.947Z,32.28
2022-12-17T22:13:04.196Z,28.80
2022-12-17T22:15:34.306Z,24.85
2022-12-17T22:18:08.040Z,29.08
2022-12-17T22:20:40.427Z,26.33
2022-12-17T22:23:06.985Z,26.63
2022-12-17T22:25:34.050Z,22.80
2022-12-17T22:28:00.501Z,25.67
2022-12-17T22:33:44.758Z,26.75
2022-12-17T22:36:51.226Z,24.88
2022-12-17T22:40:42.373Z,27.33
2022-12-17T22:44:35.377Z,25.48
2022-12-17T22:44:42.077Z,25.25
2022-12-17T22:47:01.146Z,27.05
2022-12-17T22:49:27.505Z,27.20
2022-12-17T22:51:54.953Z,29.77
2022-12-17T22:54:23.068Z,36.22
2022-12-17T22:57:07.802Z,32.55
2022-12-17T22:59:36.691Z,33.10
2022-12-17T23:02:03.256Z,31.38
2022-12-17T23:04:29.864Z,30.92
2022-12-17T23:06:56.221Z,28.63
2022-12-17T23:09:22.968Z,33.90
2022-12-17T23:11:49.206Z,29.27
2022-12-17T23:14:15.535Z,31.80
2022-12-17T23:16:41.834Z,28.98
2022-12-17T23:19:08.342Z,32.78
2022-12-17T23:21:34.992Z,33.00
2022-12-17T23:24:01.718Z,28.63
2022-12-17T23:26:29.636Z,31.40
2022-12-17T23:28:56.300Z,28.55
2022-12-17T23:31:22.576Z,28.88
2022-12-17T23:33:49.323Z,31.73
2022-12-17T23:36:16.423Z,33.42
2022-12-17T23:38:42.905Z,36.30
2022-12-17T23:41:09.350Z,35.58
2022-12-17T23:43:40.118Z,36.47
2022-12-17T23:46:06.937Z,33.58
2022-12-17T23:48:33.457Z,34.63
2022-12-17T23:50:59.959Z,34.92
2022-12-17T23:53:26.238Z,43.08
2022-12-17T23:55:52.410Z,38.15
2022-12-17T23:58:18.759Z,39.95
